createdAt,value
2023-02-07T00:01:10.070Z,18.30
2023-02-07T00:03:37.345Z,20.33
2023-02-07T00:06:10.049Z,23.52
2023-02-07T00:08:38.602Z,17.23
2023-02-07T00:11:07.221Z,19.98
2023-02-07T00:13:34.769Z,19.25
2023-02-07T00:16:03.186Z,18.70
2023-02-07T00:18:30.418Z,19.08
2023-02-07T00:21:02.937Z,15.05
2023-02-07T00:23:30.300Z,17.27
2023-02-07T00:25:57.360Z,20.90
2023-02-07T00:28:24.677Z,22.93
2023-02-07T00:30:52.306Z,23.58
2023-02-07T00:33:19.523Z,19.63
2023-02-07T00:35:46.693Z,24.98
2023-02-07T00:38:13.735Z,18.67
2023-02-07T00:40:40.781Z,17.00
2023-02-07T00:43:08.074Z,16.63
2023-02-07T00:45:35.306Z,20.35
2023-02-07T00:48:02.867Z,20.67
2023-02-07T00:50:29.896Z,19.13
2023-02-07T00:52:56.981Z,17.33
2023-02-07T00:55:24.027Z,23.02
2023-02-07T00:57:51.181Z,17.38
2023-02-07T01:00:18.315Z,19.73
2023-02-07T01:02:45.557Z,18.92
2023-02-07T01:05:12.691Z,19.30
2023-02-07T01:07:40.018Z,18.33
2023-02-07T01:10:07.678Z,18.85
2023-02-07T01:12:34.946Z,19.52
2023-02-07T01:15:02.429Z,15.77
2023-02-07T01:17:29.580Z,16.37
2023-02-07T01:19:58.680Z,14.10
2023-02-07T01:22:26.853Z,14.57
2023-02-07T01:24:55.029Z,16.77
2023-02-07T01:27:23.318Z,19.15
2023-02-07T01:29:50.702Z,18.37
2023-02-07T01:32:17.959Z,21.05
2023-02-07T01:34:45.256Z,15.15
2023-02-07T01:37:12.651Z,9.68
2023-02-07T01:39:39.898Z,15.88
2023-02-07T01:42:07.347Z,18.20
2023-02-07T01:44:37.431Z,15.75
2023-02-07T01:47:04.546Z,14.13
2023-02-07T01:49:34.326Z,13.48
2023-02-07T01:52:08.806Z,20.85
2023-02-07T01:54:36.658Z,15.10
2023-02-07T01:57:07.264Z,17.83
2023-02-07T01:59:36.018Z,19.35
2023-02-07T02:02:04.621Z,15.43
2023-02-07T02:04:31.983Z,19.42
2023-02-07T02:06:59.895Z,18.00
2023-02-07T02:09:27.509Z,15.07
2023-02-07T02:12:03.854Z,20.00
2023-02-07T02:14:55.375Z,16.67
2023-02-07T02:17:40.182Z,14.88
2023-02-07T02:20:44.739Z,17.53
2023-02-07T02:23:20.579Z,16.23
2023-02-07T02:26:05.610Z,15.20
2023-02-07T02:29:00.710Z,16.23
2023-02-07T02:31:51.867Z,12.90
2023-02-07T02:34:38.707Z,16.73
2023-02-07T02:37:36.326Z,15.75
2023-02-07T02:40:08.100Z,17.45
2023-02-07T02:42:42.431Z,15.43
2023-02-07T02:45:16.886Z,17.63
2023-02-07T02:47:45.803Z,18.53
2023-02-07T02:50:15.776Z,15.07
2023-02-07T02:52:50.517Z,11.63
2023-02-07T02:55:22.735Z,13.57
2023-02-07T02:58:11.547Z,14.43
2023-02-07T03:00:46.635Z,14.27
2023-02-07T03:03:49.171Z,14.05
2023-02-07T03:06:35.301Z,17.10
2023-02-07T03:09:30.212Z,15.20
2023-02-07T03:12:22.229Z,15.23
2023-02-07T03:14:53.290Z,18.47
2023-02-07T03:17:25.030Z,18.70
2023-02-07T03:20:30.841Z,13.30
2023-02-07T03:22:59.213Z,13.88
2023-02-07T03:25:27.748Z,17.48
2023-02-07T03:27:56.111Z,11.73
2023-02-07T03:30:26.611Z,19.58
2023-02-07T03:32:58.594Z,15.77
2023-02-07T03:36:06.054Z,14.60
2023-02-07T03:38:33.179Z,16.60
2023-02-07T03:41:05.344Z,13.90
2023-02-07T03:43:33.614Z,14.75
2023-02-07T03:46:00.733Z,17.42
2023-02-07T03:48:27.798Z,18.23
2023-02-07T03:50:54.883Z,15.30
2023-02-07T03:53:21.950Z,13.87
2023-02-07T03:55:49.021Z,14.88
2023-02-07T03:58:16.064Z,16.02
2023-02-07T04:00:43.157Z,21.15
2023-02-07T04:03:10.528Z,17.80
2023-02-07T04:05:38.127Z,13.73
2023-02-07T04:08:05.483Z,18.50
2023-02-07T04:10:32.569Z,23.33
2023-02-07T04:12:59.632Z,20.10
2023-02-07T04:15:26.830Z,16.17
2023-02-07T04:17:53.851Z,15.07
2023-02-07T04:20:21.017Z,15.75
2023-02-07T04:22:48.263Z,14.27
2023-02-07T04:25:15.359Z,18.17
2023-02-07T04:27:42.524Z,19.08
2023-02-07T04:30:10.151Z,12.33
2023-02-07T04:32:37.203Z,12.75
2023-02-07T04:35:04.591Z,18.23
2023-02-07T04:37:32.039Z,15.68
2023-02-07T04:39:59.136Z,16.63
2023-02-07T04:42:26.191Z,17.70
2023-02-07T04:44:53.300Z,15.10
2023-02-07T04:47:20.365Z,12.32
2023-02-07T04:49:47.487Z,18.00
2023-02-07T04:52:14.668Z,17.20
2023-02-07T04:54:41.734Z,15.00
2023-02-07T04:57:08.905Z,16.27
2023-02-07T04:59:35.973Z,15.07
2023-02-07T05:02:03.010Z,16.83
2023-02-07T05:04:30.144Z,15.52
2023-02-07T05:06:58.181Z,13.13
2023-02-07T05:09:25.517Z,15.57
2023-02-07T05:11:52.655Z,14.32
2023-02-07T05:14:19.742Z,11.02
2023-02-07T05:16:46.996Z,15.02
2023-02-07T05:19:14.072Z,13.10
2023-02-07T05:21:41.145Z,16.60
2023-02-07T05:24:08.273Z,13.75
2023-02-07T05:26:35.352Z,14.13
2023-02-07T05:29:02.512Z,14.63
2023-02-07T05:32:06.861Z,14.73
2023-02-07T05:34:34.077Z,12.10
2023-02-07T05:37:01.120Z,12.90
2023-02-07T05:39:28.183Z,14.10
2023-02-07T05:41:55.268Z,12.73
2023-02-07T05:44:22.800Z,20.93
2023-02-07T05:46:51.777Z,11.75
2023-02-07T05:49:19.668Z,14.25
2023-02-07T05:51:46.697Z,15.55
2023-02-07T05:54:13.721Z,14.05
2023-02-07T05:56:40.772Z,11.77
2023-02-07T05:59:07.831Z,15.65
2023-02-07T06:01:37.322Z,15.93
2023-02-07T06:04:04.583Z,16.17
2023-02-07T06:06:31.636Z,12.70
2023-02-07T06:08:58.678Z,16.43
2023-02-07T06:11:25.977Z,17.80
2023-02-07T06:13:53.050Z,16.73
2023-02-07T06:16:20.186Z,15.18
2023-02-07T06:18:47.292Z,15.20
2023-02-07T06:21:14.347Z,11.50
2023-02-07T06:23:41.445Z,15.85
2023-02-07T06:26:08.725Z,16.38
2023-02-07T06:28:35.758Z,15.15
2023-02-07T06:31:03.002Z,15.52
2023-02-07T06:33:30.540Z,15.03
2023-02-07T06:35:57.562Z,21.00
2023-02-07T06:38:24.599Z,14.65
2023-02-07T06:40:51.817Z,21.65
2023-02-07T06:43:18.892Z,17.08
2023-02-07T06:45:46.042Z,17.73
2023-02-07T06:48:13.217Z,16.35
2023-02-07T06:50:40.241Z,14.68
2023-02-07T06:53:07.258Z,19.50
2023-02-07T06:55:39.564Z,19.08
2023-02-07T06:58:07.262Z,17.60
2023-02-07T07:00:34.312Z,20.42
2023-02-07T07:03:01.803Z,15.05
2023-02-07T07:05:29.705Z,12.35
2023-02-07T07:07:57.060Z,16.98
2023-02-07T07:10:24.215Z,16.83
2023-02-07T07:12:51.259Z,22.23
2023-02-07T07:15:18.365Z,18.23
2023-02-07T07:17:45.414Z,18.83
2023-02-07T07:20:13.047Z,17.85
2023-02-07T07:22:40.089Z,20.40
2023-02-07T07:25:07.202Z,23.30
2023-02-07T07:27:34.380Z,17.92
2023-02-07T07:30:01.505Z,19.52
2023-02-07T07:32:34.340Z,23.52
2023-02-07T07:35:02.621Z,19.30
2023-02-07T07:37:29.739Z,19.77
2023-02-07T07:39:57.139Z,23.08
2023-02-07T07:42:24.200Z,21.33
2023-02-07T07:44:51.360Z,14.90
2023-02-07T07:47:18.977Z,18.83
2023-02-07T07:49:46.083Z,19.42
2023-02-07T07:52:13.098Z,17.67
2023-02-07T07:54:40.136Z,18.00
2023-02-07T07:57:07.199Z,15.40
2023-02-07T07:59:34.286Z,18.03
2023-02-07T08:02:01.400Z,16.83
2023-02-07T08:04:28.465Z,20.15
2023-02-07T08:06:55.600Z,18.80
2023-02-07T08:09:22.642Z,14.55
2023-02-07T08:11:49.701Z,12.70
2023-02-07T08:14:17.375Z,19.02
2023-02-07T08:16:44.432Z,15.25
2023-02-07T08:19:11.663Z,11.32
2023-02-07T08:21:38.768Z,15.23
2023-02-07T08:24:06.048Z,14.07
2023-02-07T08:26:33.072Z,13.57
2023-02-07T08:29:00.234Z,15.25
2023-02-07T08:31:27.411Z,13.05
2023-02-07T08:33:54.590Z,18.35
2023-02-07T08:36:21.961Z,20.33
2023-02-07T08:38:49.045Z,15.80
2023-02-07T08:41:16.182Z,13.10
2023-02-07T08:43:43.240Z,12.32
2023-02-07T08:46:10.392Z,18.02
2023-02-07T08:48:37.584Z,18.17
2023-02-07T08:51:09.011Z,15.07
2023-02-07T08:53:37.031Z,18.33
2023-02-07T08:56:04.728Z,15.88
2023-02-07T08:58:32.212Z,17.33
2023-02-07T09:00:59.418Z,23.67
2023-02-07T09:03:26.616Z,14.70
2023-02-07T09:05:58.987Z,13.57
2023-02-07T09:08:26.232Z,16.63
2023-02-07T09:10:53.349Z,19.10
2023-02-07T09:13:20.423Z,13.30
2023-02-07T09:15:55.890Z,16.02
2023-02-07T09:18:24.089Z,18.58
2023-02-07T09:20:51.413Z,18.40
2023-02-07T09:23:19.202Z,21.73
2023-02-07T09:25:49.498Z,22.13
2023-02-07T09:28:17.825Z,21.23
2023-02-07T09:30:45.835Z,17.45
2023-02-07T09:33:13.793Z,16.88
2023-02-07T09:35:43.790Z,20.77
2023-02-07T09:38:17.154Z,15.93
2023-02-07T09:40:45.516Z,16.23
2023-02-07T09:43:22.484Z,15.98
2023-02-07T09:45:54.277Z,12.82
2023-02-07T09:48:32.181Z,16.63
2023-02-07T09:51:00.809Z,16.23
2023-02-07T09:53:54.437Z,20.02
2023-02-07T09:56:22.377Z,21.23
2023-02-07T09:59:00.669Z,16.38
2023-02-07T10:01:33.525Z,14.18
2023-02-07T10:04:12.825Z,21.03
2023-02-07T10:06:41.665Z,19.48
2023-02-07T10:09:12.785Z,17.27
2023-02-07T10:11:45.791Z,17.15
2023-02-07T10:14:34.133Z,17.00
2023-02-07T10:17:25.730Z,16.37
2023-02-07T10:20:10.298Z,17.90
2023-02-07T10:23:03.308Z,19.48
2023-02-07T10:25:39.520Z,17.40
2023-02-07T10:28:26.772Z,16.77
2023-02-07T10:30:57.462Z,19.90
2023-02-07T10:33:34.464Z,15.73
2023-02-07T10:36:07.262Z,14.68
2023-02-07T10:38:40.214Z,15.73
2023-02-07T10:41:20.561Z,13.40
2023-02-07T10:43:47.892Z,16.10
2023-02-07T10:46:16.543Z,15.70
2023-02-07T10:48:43.684Z,16.63
2023-02-07T10:51:35.610Z,18.23
2023-02-07T10:54:11.394Z,14.23
2023-02-07T10:56:44.623Z,22.13
2023-02-07T10:59:30.157Z,18.88
2023-02-07T11:01:57.440Z,16.63
2023-02-07T11:04:39.229Z,15.05
2023-02-07T11:07:07.957Z,16.80
2023-02-07T11:09:38.046Z,19.07
2023-02-07T11:12:23.512Z,23.98
2023-02-07T11:15:01.330Z,21.00
2023-02-07T11:17:29.160Z,19.40
2023-02-07T11:19:56.304Z,20.02
2023-02-07T11:22:24.541Z,20.97
2023-02-07T11:24:53.691Z,23.05
2023-02-07T11:27:21.848Z,18.00
2023-02-07T11:29:56.166Z,19.88
2023-02-07T11:32:25.627Z,19.45
2023-02-07T11:34:56.819Z,17.47
2023-02-07T11:37:43.501Z,16.45
2023-02-07T11:40:19.281Z,17.90
2023-02-07T11:42:58.976Z,17.90
2023-02-07T11:45:27.263Z,21.55
2023-02-07T11:47:56.282Z,17.80
2023-02-07T11:50:32.273Z,19.75
2023-02-07T11:53:00.962Z,16.77
2023-02-07T11:55:35.168Z,18.55
2023-02-07T11:58:08.687Z,20.17
2023-02-07T12:00:36.950Z,20.53
2023-02-07T12:03:08.084Z,17.42
2023-02-07T12:05:41.942Z,19.05
2023-02-07T12:08:15.627Z,18.33
2023-02-07T12:10:45.113Z,17.95
2023-02-07T12:13:19.941Z,20.20
2023-02-07T12:16:02.600Z,16.45
2023-02-07T12:18:34.065Z,18.95
2023-02-07T12:21:12.375Z,17.60
2023-02-07T12:23:43.696Z,17.70
2023-02-07T12:26:23.657Z,20.00
2023-02-07T12:29:15.146Z,17.10
2023-02-07T12:31:57.021Z,15.93
2023-02-07T12:34:31.885Z,17.90
2023-02-07T12:37:05.532Z,15.27
2023-02-07T12:39:43.299Z,19.07
2023-02-07T12:42:39.528Z,21.38
2023-02-07T12:45:07.604Z,19.08
2023-02-07T12:47:59.643Z,16.85
2023-02-07T12:50:48.205Z,19.70
2023-02-07T12:53:28.441Z,17.80
2023-02-07T12:56:17.644Z,17.17
2023-02-07T12:59:02.444Z,16.38
2023-02-07T13:01:49.882Z,14.55
2023-02-07T13:04:52.282Z,19.58
2023-02-07T13:07:36.231Z,19.03
2023-02-07T13:10:23.237Z,19.30
2023-02-07T13:13:10.249Z,18.60
2023-02-07T13:15:42.687Z,21.55
2023-02-07T13:18:21.750Z,21.70
2023-02-07T13:20:54.371Z,22.07
2023-02-07T13:23:23.152Z,19.25
2023-02-07T13:25:57.868Z,19.45
2023-02-07T13:28:40.522Z,13.40
2023-02-07T13:31:11.483Z,15.13
2023-02-07T13:33:40.092Z,18.93
2023-02-07T13:36:36.122Z,17.35
2023-02-07T13:39:14.141Z,19.15
2023-02-07T13:42:09.892Z,19.30
2023-02-07T13:44:51.656Z,15.15
2023-02-07T13:47:31.665Z,15.50
2023-02-07T13:50:04.685Z,16.35
2023-02-07T13:52:43.791Z,16.02
2023-02-07T13:55:33.277Z,16.00
2023-02-07T13:58:19.187Z,17.35
2023-02-07T14:00:58.378Z,18.63
2023-02-07T14:03:35.678Z,18.15
2023-02-07T14:06:22.610Z,19.15
2023-02-07T14:09:24.215Z,21.38
2023-02-07T14:12:01.634Z,19.45
2023-02-07T14:14:31.063Z,23.20
2023-02-07T14:17:04.001Z,21.38
2023-02-07T14:19:45.408Z,19.02
2023-02-07T14:22:27.068Z,22.77
2023-02-07T14:25:03.420Z,18.40
2023-02-07T14:27:39.156Z,24.00
2023-02-07T14:30:13.078Z,22.30
2023-02-07T14:33:00.412Z,21.77
2023-02-07T14:35:27.584Z,18.00
2023-02-07T14:38:06.629Z,21.60
2023-02-07T14:41:01.902Z,18.43
2023-02-07T14:43:40.360Z,21.48
2023-02-07T14:46:11.303Z,22.67
2023-02-07T14:48:44.513Z,20.90
2023-02-07T14:51:19.135Z,19.98
2023-02-07T14:53:55.380Z,20.20
2023-02-07T14:56:38.356Z,21.20
2023-02-07T14:59:06.583Z,20.98
2023-02-07T15:01:33.671Z,21.83
2023-02-07T15:04:02.366Z,21.65
2023-02-07T15:06:32.602Z,20.60
2023-02-07T15:09:01.060Z,21.48
2023-02-07T15:11:29.419Z,21.73
2023-02-07T15:13:59.421Z,19.58
2023-02-07T15:16:29.678Z,22.65
2023-02-07T15:19:21.129Z,22.20
2023-02-07T15:21:51.131Z,23.88
2023-02-07T15:24:26.844Z,27.58
2023-02-07T15:26:58.462Z,25.92
2023-02-07T15:29:28.577Z,26.45
2023-02-07T15:31:56.124Z,24.70
2023-02-07T15:34:31.485Z,27.35
2023-02-07T15:37:00.644Z,29.20
2023-02-07T15:39:29.356Z,28.50
2023-02-07T15:41:57.127Z,27.48
2023-02-07T15:44:29.588Z,27.67
2023-02-07T15:47:01.906Z,26.10
2023-02-07T15:49:30.379Z,25.58
2023-02-07T15:52:01.998Z,25.55
2023-02-07T15:54:29.106Z,24.33
2023-02-07T15:57:00.020Z,29.00
2023-02-07T15:59:31.485Z,28.50
2023-02-07T16:02:00.946Z,34.22
2023-02-07T16:04:30.473Z,27.60
2023-02-07T16:07:01.608Z,31.33
2023-02-07T16:09:43.249Z,29.63
2023-02-07T16:12:32.132Z,24.50
2023-02-07T16:15:00.635Z,27.55
2023-02-07T16:17:41.883Z,24.70
2023-02-07T16:20:14.445Z,27.00
2023-02-07T16:22:45.324Z,32.53
2023-02-07T16:25:19.254Z,34.00
2023-02-07T16:27:48.963Z,28.25
2023-02-07T16:30:25.825Z,34.65
2023-02-07T16:32:52.949Z,32.33
2023-02-07T16:35:23.119Z,27.57
2023-02-07T16:37:50.462Z,26.17
2023-02-07T16:40:18.340Z,32.08
2023-02-07T16:42:45.611Z,29.05
2023-02-07T16:45:25.423Z,25.83
2023-02-07T16:47:52.552Z,29.90
2023-02-07T16:50:21.684Z,33.83
2023-02-07T16:52:49.820Z,30.15
2023-02-07T16:55:18.434Z,30.75
2023-02-07T16:57:47.567Z,28.80
2023-02-07T17:00:21.115Z,33.80
2023-02-07T17:02:50.428Z,35.10
2023-02-07T17:05:18.812Z,30.17
2023-02-07T17:07:46.571Z,33.22
2023-02-07T17:10:21.560Z,32.85
2023-02-07T17:12:48.692Z,30.33
2023-02-07T17:15:16.531Z,30.23
2023-02-07T17:17:43.653Z,30.40
2023-02-07T17:20:21.742Z,29.67
2023-02-07T17:25:22.637Z,34.43
2023-02-07T17:27:49.758Z,32.75
2023-02-07T17:30:22.016Z,33.33
2023-02-07T17:32:49.485Z,30.13
2023-02-07T17:35:16.577Z,30.38
2023-02-07T17:37:43.758Z,31.60
2023-02-07T17:40:23.900Z,33.25
2023-02-07T17:42:51.141Z,35.30
2023-02-07T17:45:18.259Z,33.03
2023-02-07T17:47:45.554Z,29.73
2023-02-07T17:50:21.344Z,32.53
2023-02-07T17:52:48.429Z,29.48
2023-02-07T17:55:16.181Z,33.05
2023-02-07T17:57:43.781Z,30.52
2023-02-07T18:00:24.144Z,29.92
2023-02-07T18:02:51.527Z,29.10
2023-02-07T18:05:18.662Z,29.73
2023-02-07T18:07:46.614Z,32.33
2023-02-07T18:10:20.035Z,30.25
2023-02-07T18:12:47.414Z,30.40
2023-02-07T18:15:14.852Z,29.23
2023-02-07T18:17:47.185Z,31.52
2023-02-07T18:20:20.094Z,33.17
2023-02-07T18:22:47.382Z,31.33
2023-02-07T18:25:14.823Z,29.67
2023-02-07T18:27:42.724Z,32.37
2023-02-07T18:30:20.944Z,34.08
2023-02-07T18:32:48.881Z,29.75
2023-02-07T18:35:16.443Z,34.00
2023-02-07T18:37:43.524Z,30.02
2023-02-07T18:40:12.967Z,29.73
2023-02-07T18:42:40.057Z,32.88
2023-02-07T18:45:07.672Z,32.90
2023-02-07T18:47:34.986Z,29.60
2023-02-07T18:50:02.045Z,29.33
2023-02-07T18:52:29.632Z,31.57
2023-02-07T18:54:57.828Z,31.25
2023-02-07T18:57:24.854Z,30.00
2023-02-07T18:59:52.258Z,32.58
2023-02-07T19:02:19.446Z,27.42
2023-02-07T19:04:47.624Z,30.37
2023-02-07T19:07:15.005Z,32.17
2023-02-07T19:09:42.184Z,29.83
2023-02-07T19:12:10.772Z,29.88
2023-02-07T19:14:38.245Z,31.30
2023-02-07T19:17:05.346Z,27.23
2023-02-07T19:19:32.754Z,29.35
2023-02-07T19:22:00.329Z,28.27
2023-02-07T19:24:27.891Z,32.28
2023-02-07T19:26:56.731Z,32.10
2023-02-07T19:29:29.477Z,31.80
2023-02-07T19:32:02.089Z,27.95
2023-02-07T19:34:29.497Z,30.10
2023-02-07T19:36:56.974Z,31.15
2023-02-07T19:39:24.814Z,31.17
2023-02-07T19:41:52.033Z,32.40
2023-02-07T19:44:19.095Z,37.95
2023-02-07T19:46:46.373Z,34.80
2023-02-07T19:49:13.995Z,32.65
2023-02-07T19:51:41.834Z,36.03
2023-02-07T19:54:08.910Z,34.20
2023-02-07T19:56:36.631Z,36.97
2023-02-07T19:59:05.334Z,37.95
2023-02-07T20:01:34.180Z,34.58
2023-02-07T20:04:01.502Z,31.70
2023-02-07T20:06:33.051Z,38.80
2023-02-07T20:09:03.784Z,32.67
2023-02-07T20:11:31.014Z,33.20
2023-02-07T20:14:03.991Z,31.35
2023-02-07T20:16:34.469Z,35.97
2023-02-07T20:19:02.692Z,34.43
2023-02-07T20:21:30.589Z,31.98
2023-02-07T20:23:57.754Z,36.40
2023-02-07T20:26:31.572Z,35.22
2023-02-07T20:29:06.722Z,34.45
2023-02-07T20:31:34.019Z,38.63
2023-02-07T20:34:02.068Z,33.30
2023-02-07T20:36:30.852Z,38.55
2023-02-07T20:38:59.327Z,32.88
2023-02-07T20:41:32.455Z,38.03
2023-02-07T20:44:04.354Z,40.77
2023-02-07T20:46:34.239Z,41.95
2023-02-07T20:49:04.419Z,38.85
2023-02-07T20:51:31.782Z,36.92
2023-02-07T20:54:00.576Z,36.50
2023-02-07T20:56:28.348Z,33.87
2023-02-07T20:58:55.796Z,38.95
2023-02-07T21:01:24.555Z,34.72
2023-02-07T21:03:53.648Z,32.70
2023-02-07T21:06:22.893Z,37.83
2023-02-07T21:09:00.059Z,33.37
2023-02-07T21:11:36.060Z,33.63
2023-02-07T21:14:05.251Z,32.38
2023-02-07T21:16:32.663Z,31.70
2023-02-07T21:19:00.136Z,36.00
2023-02-07T21:21:27.784Z,32.90
2023-02-07T21:23:55.116Z,34.22
2023-02-07T21:26:22.176Z,37.45
2023-02-07T21:28:49.624Z,37.75
2023-02-07T21:31:19.500Z,35.95
2023-02-07T21:33:47.634Z,37.27
2023-02-07T21:36:18.048Z,33.95
2023-02-07T21:38:48.504Z,36.55
2023-02-07T21:41:17.863Z,33.33
2023-02-07T21:43:45.036Z,36.42
2023-02-07T21:46:17.894Z,38.80
2023-02-07T21:48:46.449Z,38.15
2023-02-07T21:51:16.354Z,39.47
2023-02-07T21:53:44.464Z,39.80
2023-02-07T21:56:15.767Z,29.48
2023-02-07T21:58:43.402Z,37.63
2023-02-07T22:01:16.690Z,38.05
2023-02-07T22:03:45.997Z,43.92
2023-02-07T22:06:15.083Z,45.60
2023-02-07T22:08:47.473Z,37.83
2023-02-07T22:11:17.671Z,39.70
2023-02-07T22:13:45.461Z,30.83
2023-02-07T22:16:13.998Z,38.17
2023-02-07T22:18:41.886Z,42.00
2023-02-07T22:21:11.705Z,42.05
2023-02-07T22:23:38.786Z,38.67
2023-02-07T22:26:06.499Z,44.17
2023-02-07T22:28:33.941Z,38.90
2023-02-07T22:31:01.236Z,40.67
2023-02-07T22:33:28.466Z,38.17
2023-02-07T22:35:55.536Z,41.17
2023-02-07T22:38:23.171Z,38.22
2023-02-07T22:40:50.218Z,40.03
2023-02-07T22:43:17.323Z,38.72
2023-02-07T22:45:46.131Z,39.80
2023-02-07T22:48:15.328Z,37.03
2023-02-07T22:50:43.339Z,38.55
2023-02-07T22:53:13.361Z,32.22
2023-02-07T22:55:40.924Z,35.22
2023-02-07T22:58:08.428Z,37.05
2023-02-07T23:00:35.735Z,35.20
2023-02-07T23:03:02.811Z,36.85
2023-02-07T23:05:29.901Z,31.25
2023-02-07T23:07:56.985Z,34.40
2023-02-07T23:10:26.327Z,34.55
2023-02-07T23:12:53.621Z,36.67
2023-02-07T23:15:20.686Z,36.58
2023-02-07T23:17:47.707Z,32.15
2023-02-07T23:20:15.096Z,33.83
2023-02-07T23:22:42.137Z,36.72
2023-02-07T23:25:10.000Z,37.60
2023-02-07T23:27:37.235Z,40.13
2023-02-07T23:30:04.812Z,37.55
2023-02-07T23:32:31.886Z,33.45
2023-02-07T23:34:59.127Z,34.20
2023-02-07T23:37:26.193Z,33.43
2023-02-07T23:39:53.242Z,36.50
2023-02-07T23:42:20.250Z,43.40
2023-02-07T23:44:50.270Z,37.63
2023-02-07T23:47:18.406Z,34.55
2023-02-07T23:49:45.639Z,35.47
2023-02-07T23:52:12.779Z,36.50
2023-02-07T23:54:40.101Z,35.65
2023-02-07T23:57:07.150Z,37.58
2023-02-07T23:59:34.852Z,34.78
